Time;durP1;ratioP1;P1;durP2;ratioP2;P2;SDS_P1;SDS_P2;PMS_P1;PMS_P2;Temp;Humidity;BMP_temperature;BMP_pressure;BME280_temperature;BME280_humidity;BME280_pressure;Samples;Min_cycle;Max_cycle;Signal;HPM_P1;HPM_P2
2021/12/23 00:00:12;;;;;;;14.65;9.50;;;;;;;-2.44;94.36;101470.84;2098446;28;20473;-69
2021/12/23 00:01:12;;;;;;;12.57;9.35;;;;;;;-2.45;93.86;101476.81;2098870;28;20021;-68
2021/12/23 00:02:13;;;;;;;17.80;10.60;;;;;;;-2.46;94.16;101472.53;2107510;28;20032;-67
2021/12/23 00:03:13;;;;;;;17.00;11.87;;;;;;;-2.43;93.61;101470.00;2107520;28;20099;-69
2021/12/23 00:04:13;;;;;;;11.83;8.53;;;;;;;-2.41;93.77;101472.59;2107425;28;20101;-69
2021/12/23 00:05:14;;;;;;;16.10;10.60;;;;;;;-2.46;93.73;101470.81;2107569;28;20316;-68
2021/12/23 00:06:14;;;;;;;15.90;9.63;;;;;;;-2.49;93.89;101467.34;2098304;28;20516;-69
2021/12/23 00:07:14;;;;;;;14.50;11.00;;;;;;;-2.50;93.78;101468.19;2098476;28;20405;-68
2021/12/23 00:08:15;;;;;;;13.80;9.03;;;;;;;-2.51;93.86;101468.97;2107344;28;20028;-69
2021/12/23 00:09:15;;;;;;;13.82;8.45;;;;;;;-2.54;94.31;101472.34;2107406;28;20039;-69
2021/12/23 00:10:16;;;;;;;11.93;9.27;;;;;;;-2.52;94.01;101469.81;2107414;28;20441;-69
2021/12/23 00:11:16;;;;;;;19.27;11.15;;;;;;;-2.48;93.75;101464.81;2107570;28;20382;-68
2021/12/23 00:12:17;;;;;;;14.07;9.57;;;;;;;-2.48;93.46;101458.84;2107386;28;20107;-68
2021/12/23 00:13:17;;;;;;;14.55;10.35;;;;;;;-2.50;94.02;101450.28;2107365;28;20083;-68
2021/12/23 00:14:18;;;;;;;13.37;9.20;;;;;;;-2.49;93.60;101452.00;2098321;28;20146;-69
2021/12/23 00:15:30;;;;;;;13.60;9.63;;;;;;;-2.49;93.21;101442.63;2098307;28;20563;-68
2021/12/23 00:16:44;;;;;;;14.07;10.30;;;;;;;-2.48;93.40;101443.50;2107422;28;20408;-68
2021/12/23 00:18:04;;;;;;;15.25;10.10;;;;;;;-2.54;93.63;101439.09;2107325;28;20405;-69
2021/12/23 00:19:16;;;;;;;14.70;9.63;;;;;;;-2.54;93.78;101451.06;2098309;28;20577;-68
2021/12/23 00:23:59;;;;;;;14.65;9.38;;;;;;;-2.54;93.79;101445.94;2107702;28;20036;-69
2021/12/23 00:24:59;;;;;;;17.60;11.20;;;;;;;-2.53;93.56;101432.31;2107462;28;20115;-69
2021/12/23 00:26:02;;;;;;;15.77;9.93;;;;;;;-2.52;93.25;101426.38;2107597;28;20020;-69
2021/12/23 00:27:03;;;;;;;16.60;9.70;;;;;;;-2.51;93.44;101428.97;2071541;28;1022981;-69
2021/12/23 00:28:03;;;;;;;14.38;9.98;;;;;;;-2.52;93.79;101429.78;2107948;28;20059;-69
2021/12/23 00:29:04;;;;;;;15.15;10.25;;;;;;;-2.53;94.04;101427.22;2107883;28;20031;-69
2021/12/23 00:30:05;;;;;;;13.03;9.33;;;;;;;-2.54;93.77;101428.88;2107932;28;20185;-69
2021/12/23 00:31:06;;;;;;;16.48;9.93;;;;;;;-2.57;93.91;101422.84;2107901;28;20030;-70
2021/12/23 00:32:08;;;;;;;15.35;10.70;;;;;;;-2.56;93.57;101427.13;2107942;28;20026;-69
2021/12/23 00:33:09;;;;;;;16.17;9.98;;;;;;;-2.54;93.99;101418.66;2098776;28;20017;-69
2021/12/23 00:34:10;;;;;;;13.83;9.43;;;;;;;-2.55;93.98;101422.06;2098884;28;20111;-69
2021/12/23 00:35:11;;;;;;;14.45;9.38;;;;;;;-2.54;93.74;101417.81;2107717;28;20020;-69
2021/12/23 00:36:12;;;;;;;12.67;9.83;;;;;;;-2.52;93.98;101409.34;2107776;28;20024;-69
2021/12/23 00:37:13;;;;;;;12.93;9.18;;;;;;;-2.48;93.30;101403.47;2107728;28;20292;-71
2021/12/23 00:38:20;;;;;;;14.27;10.13;;;;;;;-2.49;93.46;101398.31;2107833;28;20504;-69
2021/12/23 00:39:20;;;;;;;15.02;9.90;;;;;;;-2.48;93.21;101397.47;2098758;28;20032;-69
2021/12/23 00:40:21;;;;;;;17.67;11.00;;;;;;;-2.49;93.32;101385.53;2098940;28;20357;-68
2021/12/23 00:41:23;;;;;;;14.00;9.03;;;;;;;-2.46;93.14;101385.59;2098700;28;20029;-68
2021/12/23 00:42:23;;;;;;;13.40;9.63;;;;;;;-2.46;93.33;101383.06;2098971;28;20024;-68
2021/12/23 00:43:24;;;;;;;14.47;10.37;;;;;;;-2.49;93.19;101385.53;2107604;28;20059;-68
2021/12/23 00:44:24;;;;;;;15.65;9.93;;;;;;;-2.51;94.04;101392.31;2107530;28;20063;-68
2021/12/23 00:45:24;;;;;;;16.37;9.87;;;;;;;-2.50;93.49;101394.88;2098753;28;20024;-68
2021/12/23 00:46:25;;;;;;;14.33;10.40;;;;;;;-2.47;93.10;101399.19;2098784;28;20031;-69
2021/12/23 00:47:26;;;;;;;14.18;9.02;;;;;;;-2.47;93.23;101397.50;2107687;28;20040;-69
2021/12/23 00:48:27;;;;;;;14.07;9.50;;;;;;;-2.46;93.00;101400.94;2107638;28;20059;-69
2021/12/23 00:49:27;;;;;;;15.70;9.55;;;;;;;-2.42;93.23;101397.63;2107007;28;20023;-69
2021/12/23 00:50:27;;;;;;;13.87;9.37;;;;;;;-2.41;92.76;101399.34;2107095;28;20418;-69
2021/12/23 00:51:29;;;;;;;14.90;9.67;;;;;;;-2.43;93.44;101398.44;2107777;28;20020;-69
2021/12/23 00:52:34;;;;;;;16.80;9.15;;;;;;;-2.45;92.87;101397.56;2098534;28;20023;-69
2021/12/23 00:53:38;;;;;;;17.25;10.45;;;;;;;-2.45;93.08;101395.00;2099364;28;20099;-69
2021/12/23 00:54:38;;;;;;;17.30;10.90;;;;;;;-2.42;93.02;101397.63;2107600;28;20020;-68
2021/12/23 00:55:39;;;;;;;14.63;10.27;;;;;;;-2.41;92.69;101389.13;2107617;28;20346;-69
2021/12/23 00:56:39;;;;;;;18.77;10.33;;;;;;;-2.41;92.48;101384.00;2107677;28;20016;-69
2021/12/23 00:57:41;;;;;;;15.97;10.00;;;;;;;-2.40;93.03;101372.09;2107671;28;20473;-68
2021/12/23 00:58:41;;;;;;;14.68;9.90;;;;;;;-2.42;93.09;101377.16;2098595;28;20024;-69
2021/12/23 00:59:41;;;;;;;13.47;9.33;;;;;;;-2.43;92.82;101377.13;2098777;28;20154;-68
2021/12/23 01:00:42;;;;;;;14.60;10.67;;;;;;;-2.42;92.69;101377.16;2107598;28;20089;-69
2021/12/23 01:01:43;;;;;;;15.73;10.10;;;;;;;-2.42;92.19;101387.41;2107651;28;20020;-69
2021/12/23 01:02:45;;;;;;;15.50;10.10;;;;;;;-2.37;92.25;101390.03;2098584;28;20032;-69
2021/12/23 01:03:45;;;;;;;15.40;9.60;;;;;;;-2.36;92.12;101391.78;2098752;28;20286;-68
2021/12/23 01:04:45;;;;;;;14.20;9.88;;;;;;;-2.41;92.88;101389.13;2107584;28;20016;-69
2021/12/23 01:05:46;;;;;;;12.60;9.77;;;;;;;-2.43;93.09;101393.31;2107556;28;20036;-70
2021/12/23 01:06:48;;;;;;;15.60;10.20;;;;;;;-2.44;92.89;101400.97;2098633;28;20078;-69
2021/12/23 01:07:49;;;;;;;13.30;9.75;;;;;;;-2.46;93.04;101404.34;2098675;28;20036;-69
2021/12/23 01:08:49;;;;;;;13.95;9.68;;;;;;;-2.46;93.01;101406.06;2107726;28;20500;-68
2021/12/23 01:09:49;;;;;;;15.17;10.27;;;;;;;-2.47;93.47;101407.75;2098512;28;20019;-69
2021/12/23 01:10:54;;;;;;;14.30;10.30;;;;;;;-2.46;93.40;101411.16;2098659;28;20074;-68
2021/12/23 01:11:55;;;;;;;14.88;10.00;;;;;;;-2.47;93.41;101402.63;2098414;28;20066;-68
2021/12/23 01:13:02;;;;;;;14.13;8.80;;;;;;;-2.46;93.32;101401.78;2098503;28;20544;-69
2021/12/23 01:14:26;;;;;;;14.10;10.05;;;;;;;-2.43;93.56;101395.88;2107443;28;20050;-69
2021/12/23 01:16:37;;;;;;;13.82;9.95;;;;;;;-2.41;93.12;101401.03;2107643;28;20036;-69
2021/12/23 01:17:57;;;;;;;;;;;;;;;-2.42;93.38;101402.72;2098843;28;20417;-69
2021/12/23 01:18:57;;;;;;;13.70;8.45;;;;;;;-2.46;93.83;101395.84;2101306;28;19908;-69
2021/12/23 01:20:01;;;;;;;13.13;8.90;;;;;;;-2.47;93.66;101400.06;2098380;28;20520;-69
2021/12/23 01:21:14;;;;;;;12.52;8.45;;;;;;;-2.48;93.98;101394.94;2090512;28;20421;-68
2021/12/23 01:22:15;;;;;;;14.65;9.57;;;;;;;-2.47;93.75;101396.66;2100400;28;20039;-69
2021/12/23 01:23:16;;;;;;;15.80;10.13;;;;;;;-2.46;93.94;101395.84;2107515;28;20028;-69
2021/12/23 01:24:16;;;;;;;12.93;8.98;;;;;;;-2.43;93.97;101395.88;2107589;28;20023;-69
2021/12/23 01:25:17;;;;;;;16.27;8.43;;;;;;;-2.40;92.91;101393.38;2107421;28;20016;-69
2021/12/23 01:26:20;;;;;;;14.65;10.30;;;;;;;-2.37;92.92;101396.00;2107427;28;20313;-69
2021/12/23 01:27:21;;;;;;;13.35;10.02;;;;;;;-2.36;92.88;101396.88;2107312;28;20056;-69
2021/12/23 01:28:22;;;;;;;15.93;9.87;;;;;;;-2.38;93.14;101383.19;2098460;28;20094;-68
2021/12/23 01:29:22;;;;;;;15.95;10.05;;;;;;;-2.39;93.27;101386.59;2098386;28;20020;-70
2021/12/23 01:30:23;;;;;;;14.07;9.40;;;;;;;-2.39;93.62;101377.19;2098443;28;20032;-69
2021/12/23 01:31:28;;;;;;;14.10;9.30;;;;;;;-2.38;93.39;101384.06;2098462;28;20028;-70
2021/12/23 01:32:28;;;;;;;13.70;9.75;;;;;;;-2.38;93.30;101384.06;2107237;28;20038;-69
2021/12/23 01:33:29;;;;;;;12.63;9.60;;;;;;;-2.38;93.69;101384.06;2107377;28;20035;-68
2021/12/23 01:34:31;;;;;;;13.48;9.27;;;;;;;-2.38;93.08;101380.63;2107326;28;20077;-69
2021/12/23 01:35:31;;;;;;;;;;;;;;;-2.38;93.20;101376.41;2107661;28;20039;-69
2021/12/23 01:36:32;;;;;;;14.18;9.43;;;;;;;-2.40;93.55;101375.50;2098256;28;20309;-68
2021/12/23 01:37:32;;;;;;;14.98;9.38;;;;;;;-2.40;93.58;101379.75;2098460;28;20119;-68
2021/12/23 01:38:32;;;;;;;13.63;9.93;;;;;;;-2.40;93.55;101375.50;2107306;28;20055;-69
2021/12/23 01:39:32;;;;;;;14.63;10.07;;;;;;;-2.40;93.65;101367.81;2107338;28;20107;-68
2021/12/23 01:40:33;;;;;;;16.13;10.63;;;;;;;-2.39;93.37;101369.53;2107306;28;20081;-68
2021/12/23 01:41:34;;;;;;;14.55;9.30;;;;;;;-2.39;93.41;101372.09;2098297;28;20066;-69
2021/12/23 01:42:34;;;;;;;14.20;8.83;;;;;;;-2.38;93.47;101363.63;2098360;28;20024;-70
2021/12/23 01:43:35;;;;;;;16.10;10.23;;;;;;;-2.39;93.52;101356.75;2107138;28;20023;-68
2021/12/23 01:44:35;;;;;;;14.98;9.90;;;;;;;-2.39;94.17;101361.88;2107267;28;20031;-69
2021/12/23 01:45:43;;;;;;;13.77;9.17;;;;;;;-2.39;93.78;101361.88;2098117;28;20013;-69
2021/12/23 01:46:44;;;;;;;14.35;9.75;;;;;;;-2.40;94.31;101355.03;2090911;28;20021;-69
2021/12/23 01:47:45;;;;;;;14.30;10.00;;;;;;;-2.39;94.38;101356.75;2098163;28;20497;-68
2021/12/23 01:48:45;;;;;;;13.30;9.38;;;;;;;-2.39;93.89;101358.47;2106575;28;20024;-70
2021/12/23 01:49:45;;;;;;;13.90;9.40;;;;;;;-2.35;92.98;101362.81;2107172;28;20447;-68
2021/12/23 01:50:47;;;;;;;14.80;8.63;;;;;;;-2.33;93.59;101351.78;2107286;28;20016;-69
2021/12/23 01:51:47;;;;;;;;;;;;;;;-2.30;94.00;101357.78;2107623;28;20023;-70
2021/12/23 01:52:47;;;;;;;13.60;9.00;;;;;;;-2.31;93.69;101348.38;2107094;28;20296;-68
2021/12/23 01:53:48;;;;;;;15.67;9.10;;;;;;;-2.31;93.71;101362.03;2107274;28;20027;-69
2021/12/23 01:54:48;;;;;;;15.65;9.60;;;;;;;-2.31;93.50;101353.47;2107075;28;20031;-68
2021/12/23 01:55:49;;;;;;;15.03;9.70;;;;;;;-2.33;94.01;101351.78;2106203;28;20063;-69
2021/12/23 01:56:49;;;;;;;14.40;9.33;;;;;;;-2.34;93.37;101344.06;2106438;28;20463;-69
2021/12/23 01:57:50;;;;;;;12.63;8.93;;;;;;;-2.34;93.30;101339.81;2106502;28;20035;-69
2021/12/23 01:58:52;;;;;;;16.52;9.90;;;;;;;-2.33;93.01;101336.44;2107210;28;20032;-69
2021/12/23 01:59:52;;;;;;;17.63;10.70;;;;;;;-2.33;93.53;101339.00;2107017;28;20024;-69
2021/12/23 02:00:53;;;;;;;13.30;9.33;;;;;;;-2.32;93.43;101337.31;2107079;28;20098;-69
2021/12/23 02:01:53;;;;;;;16.55;10.35;;;;;;;-2.34;93.23;101327.03;2107079;28;20016;-68
2021/12/23 02:02:55;;;;;;;13.17;9.77;;;;;;;-2.34;92.83;101333.84;2107116;28;20023;-69
2021/12/23 02:03:55;;;;;;;14.10;9.52;;;;;;;-2.34;93.29;101339.81;2107013;28;20663;-69
2021/12/23 02:04:55;;;;;;;12.90;8.80;;;;;;;-2.34;93.12;101344.94;2107127;28;20059;-69
2021/12/23 02:05:56;;;;;;;14.03;9.33;;;;;;;-2.36;93.08;101345.75;2097888;28;20032;-69
2021/12/23 02:06:56;;;;;;;15.87;9.83;;;;;;;-2.37;93.29;101334.66;2098078;28;20068;-68
2021/12/23 02:07:58;;;;;;;13.93;9.87;;;;;;;-2.36;93.20;101336.38;2107088;28;20055;-69
2021/12/23 02:08:58;;;;;;;17.73;11.32;;;;;;;-2.36;92.54;101322.75;2107010;28;20043;-69
2021/12/23 02:09:58;;;;;;;15.47;10.47;;;;;;;-2.35;92.86;101320.22;2107081;28;20031;-69
2021/12/23 02:10:59;;;;;;;14.70;9.10;;;;;;;-2.37;93.34;101316.75;2106994;28;20046;-69
2021/12/23 02:12:00;;;;;;;15.13;9.52;;;;;;;-2.39;93.48;101323.50;2107034;28;20027;-69
2021/12/23 02:13:01;;;;;;;15.40;9.97;;;;;;;-2.41;93.13;101317.53;2106969;28;20405;-69
2021/12/23 02:14:01;;;;;;;13.77;9.02;;;;;;;-2.40;92.85;101319.25;2106981;28;20040;-68
2021/12/23 02:15:02;;;;;;;14.37;9.63;;;;;;;-2.37;93.03;101319.31;2106987;28;20027;-68
2021/12/23 02:16:03;;;;;;;14.65;9.75;;;;;;;-2.39;92.91;101320.97;2107008;28;20031;-69
2021/12/23 02:17:04;;;;;;;14.90;10.23;;;;;;;-2.38;92.55;101322.72;2107075;28;20393;-69
2021/12/23 02:18:04;;;;;;;13.33;9.53;;;;;;;-2.37;92.62;101324.41;2106971;28;20020;-69
2021/12/23 02:19:15;;;;;;;14.17;9.23;;;;;;;-2.36;92.77;101325.28;2106961;28;20396;-68
2021/12/23 02:20:30;;;;;;;12.75;8.73;;;;;;;-2.37;92.79;101319.31;2106820;28;20030;-69
2021/12/23 02:21:31;;;;;;;13.38;9.98;;;;;;;-2.37;92.60;101319.31;2106874;28;20024;-70
2021/12/23 02:22:31;;;;;;;13.20;9.40;;;;;;;-2.37;91.97;101314.19;2106885;28;20024;-69
2021/12/23 02:23:32;;;;;;;15.02;9.50;;;;;;;-2.35;91.83;101316.78;2106360;28;20544;-69
2021/12/23 02:24:33;;;;;;;12.73;8.48;;;;;;;-2.36;92.02;101308.25;2106390;28;20032;-69
2021/12/23 02:25:33;;;;;;;13.10;8.57;;;;;;;-2.37;91.84;101311.63;2106839;28;20032;-70
2021/12/23 02:26:38;;;;;;;16.00;9.83;;;;;;;-2.38;91.89;101307.38;2106925;28;20489;-68
2021/12/23 02:27:39;;;;;;;14.38;9.48;;;;;;;-2.41;91.98;101307.31;2106709;28;20521;-69
2021/12/23 02:28:39;;;;;;;16.52;8.98;;;;;;;-2.42;92.34;101310.69;2106868;28;20386;-68
2021/12/23 02:29:40;;;;;;;19.23;10.40;;;;;;;-2.43;91.94;101314.06;2106931;28;20021;-68
2021/12/23 02:30:40;;;;;;;15.10;10.40;;;;;;;-2.43;91.78;101318.34;2106855;28;20385;-68
2021/12/23 02:31:40;;;;;;;16.73;9.90;;;;;;;-2.43;91.68;101313.22;2106868;28;20024;-68
2021/12/23 02:32:41;;;;;;;14.47;9.43;;;;;;;-2.45;91.98;101315.75;2106841;28;20028;-69
2021/12/23 02:33:41;;;;;;;16.95;10.73;;;;;;;-2.46;92.06;101314.88;2106793;28;20028;-68
2021/12/23 02:34:41;;;;;;;14.40;9.53;;;;;;;-2.48;92.32;101311.44;2106879;28;20027;-69
2021/12/23 02:35:42;;;;;;;29.97;9.20;;;;;;;-2.50;92.28;101312.25;2106749;28;20026;-68
2021/12/23 02:36:48;;;;;;;15.10;9.17;;;;;;;-2.53;92.51;101307.91;2106846;28;20048;-68
2021/12/23 02:37:48;;;;;;;14.32;8.80;;;;;;;-2.56;92.08;101313.00;2106778;28;20035;-69
2021/12/23 02:38:49;;;;;;;14.80;10.32;;;;;;;-2.57;92.42;101310.41;2106725;28;20071;-69
2021/12/23 02:39:49;;;;;;;13.10;8.83;;;;;;;-2.59;92.21;101315.47;2097694;28;20115;-68
2021/12/23 02:40:50;;;;;;;14.00;9.53;;;;;;;-2.60;92.33;101317.16;2097821;28;20090;-69
2021/12/23 02:41:51;;;;;;;13.30;8.80;;;;;;;-2.61;92.66;101314.56;2097677;28;20074;-69
2021/12/23 02:42:51;;;;;;;15.05;9.77;;;;;;;-2.67;92.19;101310.19;2097771;28;20031;-69
2021/12/23 02:43:52;;;;;;;13.03;9.73;;;;;;;-2.70;92.93;101311.84;2106163;28;20094;-69
2021/12/23 02:44:55;;;;;;;15.25;10.52;;;;;;;-2.71;92.72;101318.63;2106641;28;20024;-69
2021/12/23 02:45:58;;;;;;;17.98;9.60;;;;;;;-2.68;92.62;101318.72;2106653;28;20024;-70
2021/12/23 02:46:59;;;;;;;15.50;9.77;;;;;;;-2.70;92.87;101324.63;2106720;28;20405;-70
2021/12/23 02:47:59;;;;;;;14.73;9.70;;;;;;;-2.75;93.17;101327.06;2097772;28;20032;-69
2021/12/23 02:48:59;;;;;;;14.30;10.97;;;;;;;-2.75;93.26;101327.06;2097765;28;20456;-69
2021/12/23 02:49:59;;;;;;;15.47;9.53;;;;;;;-2.77;93.39;101315.97;2106727;28;20031;-69
2021/12/23 02:51:04;;;;;;;13.83;10.37;;;;;;;-2.76;92.97;101312.59;2106751;28;20024;-69
2021/12/23 02:52:05;;;;;;;18.85;11.30;;;;;;;-2.76;93.25;101310.03;2106738;28;20028;-69
2021/12/23 02:53:05;;;;;;;15.37;9.97;;;;;;;-2.77;93.27;101310.88;2097707;28;20497;-68
2021/12/23 02:54:06;;;;;;;14.33;9.80;;;;;;;-2.82;92.87;101302.22;2097735;28;20508;-68
2021/12/23 02:55:06;;;;;;;15.27;10.40;;;;;;;-2.82;93.18;101310.75;2097772;28;20089;-68
2021/12/23 02:56:10;;;;;;;16.85;9.68;;;;;;;-2.84;93.46;101312.44;2106746;28;20370;-69
2021/12/23 02:57:10;;;;;;;15.05;9.20;;;;;;;-2.83;93.45;101305.63;2097627;28;20178;-69
2021/12/23 02:58:11;;;;;;;19.50;10.23;;;;;;;-2.82;93.46;101299.66;2097772;28;20060;-69
2021/12/23 02:59:11;;;;;;;14.50;10.63;;;;;;;-2.83;93.43;101288.59;2106732;28;20158;-69
2021/12/23 03:00:13;;;;;;;14.97;10.10;;;;;;;-2.85;93.70;101291.13;2097675;28;20544;-70
2021/12/23 03:01:16;;;;;;;15.93;9.77;;;;;;;-2.87;93.23;101300.44;2097845;28;20473;-68
2021/12/23 03:02:16;;;;;;;14.32;10.15;;;;;;;-2.93;93.33;101290.13;2106745;28;20027;-69
2021/12/23 03:03:17;;;;;;;16.80;10.93;;;;;;;-2.95;93.52;101284.09;2106750;28;20028;-69
2021/12/23 03:04:18;;;;;;;14.32;10.07;;;;;;;-2.99;93.85;101279.75;2106672;28;20091;-69
2021/12/23 03:05:18;;;;;;;18.13;10.70;;;;;;;-3.02;94.29;101282.25;2106712;28;20073;-69
2021/12/23 03:06:19;;;;;;;13.43;9.80;;;;;;;-2.98;94.33;101281.47;2097690;28;20028;-69
2021/12/23 03:07:20;;;;;;;13.90;8.98;;;;;;;-2.98;94.60;101273.81;2097732;28;20020;-69
2021/12/23 03:08:34;;;;;;;14.67;9.20;;;;;;;-2.99;93.88;101293.41;2106744;28;20030;-69
2021/12/23 03:09:34;;;;;;;14.45;9.98;;;;;;;-3.01;94.42;101291.66;2097477;28;20028;-69
2021/12/23 03:10:35;;;;;;;12.93;9.57;;;;;;;-3.01;94.50;101281.44;2089336;28;20017;-69
2021/12/23 03:11:35;;;;;;;16.67;9.83;;;;;;;-3.00;94.59;101280.59;2097761;28;20024;-69
2021/12/23 03:12:36;;;;;;;16.10;11.43;;;;;;;-2.97;94.16;101278.09;2106545;28;20076;-69
2021/12/23 03:13:37;;;;;;;17.00;10.57;;;;;;;-2.95;94.02;101279.00;2106649;28;20047;-69
2021/12/23 03:14:37;;;;;;;14.93;10.55;;;;;;;-2.96;94.52;101277.28;2106555;28;20278;-68
2021/12/23 03:15:37;;;;;;;16.93;10.70;;;;;;;-3.00;94.17;101276.34;2097479;28;20048;-69
2021/12/23 03:16:38;;;;;;;15.50;9.63;;;;;;;-3.04;94.63;101276.25;2097674;28;20023;-69
2021/12/23 03:17:38;;;;;;;14.75;9.43;;;;;;;-3.05;94.47;101277.09;2106557;28;20016;-69
2021/12/23 03:18:39;;;;;;;14.33;9.43;;;;;;;-3.06;95.13;101276.22;2106607;28;20335;-69
2021/12/23 03:19:39;;;;;;;14.63;9.50;;;;;;;-3.08;95.02;101270.19;2106595;28;20036;-70
2021/12/23 03:20:40;;;;;;;13.27;9.90;;;;;;;-3.05;94.85;101271.97;2106542;28;20024;-70
2021/12/23 03:21:40;;;;;;;16.47;10.10;;;;;;;-3.05;95.10;101271.97;2106519;28;20024;-69
2021/12/23 03:22:41;;;;;;;18.02;10.48;;;;;;;-3.04;95.14;101264.34;2106549;28;20062;-69
2021/12/23 03:23:41;;;;;;;14.87;10.23;;;;;;;-3.04;95.14;101264.34;2106570;28;20504;-68
2021/12/23 03:24:41;;;;;;;16.87;10.63;;;;;;;-3.03;94.89;101266.06;2106528;28;20024;-69
2021/12/23 03:25:42;;;;;;;15.10;10.73;;;;;;;-3.01;95.33;101263.56;2106524;28;20457;-70
2021/12/23 03:26:42;;;;;;;14.30;11.53;;;;;;;-2.99;94.50;101256.78;2097434;28;20501;-69
2021/12/23 03:27:42;;;;;;;19.03;10.80;;;;;;;-3.00;95.00;101260.16;2097396;28;20071;-69
2021/12/23 03:28:43;;;;;;;15.97;10.00;;;;;;;-3.02;94.54;101260.13;2106487;28;20497;-69
2021/12/23 03:29:43;;;;;;;19.37;12.10;;;;;;;-3.03;95.20;101252.44;2106483;28;20039;-69
2021/12/23 03:30:44;;;;;;;18.30;11.63;;;;;;;-3.03;94.98;101253.31;2106501;28;20024;-69
2021/12/23 03:31:44;;;;;;;15.70;10.38;;;;;;;-3.01;94.96;101254.19;2105779;28;20434;-70
2021/12/23 03:32:44;;;;;;;15.00;11.20;;;;;;;-3.02;95.12;101247.34;2105950;28;20043;-69
2021/12/23 03:33:45;;;;;;;17.80;11.23;;;;;;;-3.04;95.07;101243.94;2106486;28;20469;-69
2021/12/23 03:34:45;;;;;;;18.00;11.70;;;;;;;-3.03;95.71;101247.31;2097527;28;20046;-68
2021/12/23 03:35:46;;;;;;;18.40;10.43;;;;;;;-3.02;95.04;101246.47;2097549;28;20028;-68
2021/12/23 03:36:47;;;;;;;17.42;11.40;;;;;;;-3.02;95.47;101231.16;2097452;28;20016;-68
2021/12/23 03:37:47;;;;;;;16.40;10.70;;;;;;;-3.01;94.90;101227.81;2097528;28;20063;-67
2021/12/23 03:38:47;;;;;;;14.13;9.80;;;;;;;-3.03;95.25;101227.75;2106471;28;20107;-68
2021/12/23 03:39:51;;;;;;;16.67;10.73;;;;;;;-3.01;95.16;101222.69;2106441;28;20081;-69
2021/12/23 03:40:52;;;;;;;17.58;11.13;;;;;;;-2.99;95.23;101221.00;2106521;28;20032;-69
2021/12/23 03:41:52;;;;;;;20.88;11.63;;;;;;;-2.98;94.96;101217.63;2106457;28;20111;-69
2021/12/23 03:42:52;;;;;;;16.60;10.97;;;;;;;-3.00;95.14;101230.38;2106456;28;20044;-68
2021/12/23 03:43:52;;;;;;;16.30;10.60;;;;;;;-3.01;95.58;101238.00;2106436;28;20099;-68
2021/12/23 03:44:53;;;;;;;19.13;11.33;;;;;;;-3.02;95.41;101238.81;2106486;28;20128;-68
2021/12/23 03:45:53;;;;;;;18.90;11.50;;;;;;;-3.00;95.12;101229.50;2106436;28;20031;-68
2021/12/23 03:46:53;;;;;;;16.70;10.77;;;;;;;-2.98;95.40;101222.72;2097471;28;20535;-69
2021/12/23 03:47:54;;;;;;;19.20;11.77;;;;;;;-2.97;95.17;101216.81;2097579;28;20036;-70
2021/12/23 03:48:54;;;;;;;15.13;8.63;;;;;;;-2.99;94.77;101215.91;2106360;28;20036;-68
2021/12/23 03:49:54;;;;;;;16.20;10.87;;;;;;;-2.97;95.37;101209.16;2097458;28;20036;-69
2021/12/23 03:50:54;;;;;;;15.77;12.07;;;;;;;-2.94;95.24;101204.09;2097594;28;20411;-69
2021/12/23 03:51:55;;;;;;;15.67;10.03;;;;;;;-2.91;95.10;101196.47;2105734;28;20028;-69
2021/12/23 03:52:55;;;;;;;18.90;12.23;;;;;;;-2.91;95.26;101195.63;2105909;28;20097;-69
2021/12/23 03:53:56;;;;;;;15.65;11.02;;;;;;;-2.83;95.17;101195.75;2106500;28;20064;-69
2021/12/23 03:54:56;;;;;;;17.30;12.03;;;;;;;-2.80;94.81;101190.72;2106629;28;20035;-69
2021/12/23 03:55:56;;;;;;;18.80;11.40;;;;;;;-2.77;94.35;101196.72;2106429;28;20032;-70
2021/12/23 03:56:57;;;;;;;17.63;12.37;;;;;;;-2.75;94.24;101194.22;2097451;28;20409;-69
2021/12/23 03:57:57;;;;;;;17.30;11.90;;;;;;;-2.77;94.64;101189.06;2089002;28;20279;-69
2021/12/23 03:58:58;;;;;;;15.73;10.73;;;;;;;-2.75;94.55;101194.22;2089128;28;20025;-69
2021/12/23 03:59:58;;;;;;;18.47;11.23;;;;;;;-2.72;93.96;101195.16;2097450;28;20033;-69
2021/12/23 04:00:59;;;;;;;19.17;12.60;;;;;;;-2.73;94.29;101182.34;2106500;28;20487;-69
2021/12/23 04:02:00;;;;;;;18.65;12.10;;;;;;;-2.75;94.30;101172.09;2106430;28;20055;-69
2021/12/23 04:03:01;;;;;;;18.15;12.00;;;;;;;-2.75;94.84;101176.31;2106469;28;20028;-68
2021/12/23 04:04:01;;;;;;;19.17;12.17;;;;;;;-2.76;94.38;101177.16;2106415;28;20036;-69
2021/12/23 04:05:03;;;;;;;15.82;9.88;;;;;;;-2.77;95.02;101181.41;2106362;28;20028;-69
2021/12/23 04:06:03;;;;;;;18.20;12.13;;;;;;;-2.75;94.57;101178.88;2097287;28;20123;-68
2021/12/23 04:07:04;;;;;;;17.57;11.33;;;;;;;-2.76;95.11;101177.16;2097511;28;20028;-68
2021/12/23 04:08:05;;;;;;;19.33;11.30;;;;;;;-2.77;94.64;101170.34;2106278;28;20032;-70
2021/12/23 04:09:05;;;;;;;18.13;11.18;;;;;;;-2.75;94.75;101178.88;2106414;28;20090;-68
2021/12/23 04:10:08;;;;;;;17.40;11.47;;;;;;;-2.76;94.79;101178.03;2106274;28;20101;-69
2021/12/23 04:11:08;;;;;;;17.13;12.02;;;;;;;-2.73;94.81;101183.19;2106384;28;20032;-67
2021/12/23 04:12:09;;;;;;;18.63;12.50;;;;;;;-2.70;94.97;101172.19;2106351;28;20047;-68
2021/12/23 04:13:09;;;;;;;17.48;12.20;;;;;;;-2.69;94.73;101184.13;2097291;28;20110;-70
2021/12/23 04:14:10;;;;;;;20.90;13.63;;;;;;;-2.67;94.70;101179.88;2089102;28;20025;-68
2021/12/23 04:15:10;;;;;;;19.70;12.10;;;;;;;-2.65;94.64;101182.47;2097348;28;20076;-69
2021/12/23 04:16:11;;;;;;;16.50;11.23;;;;;;;-2.66;94.38;101189.28;2105605;28;20032;-70
2021/12/23 04:17:11;;;;;;;18.40;12.87;;;;;;;-2.65;94.44;101185.88;2097309;28;20111;-68
2021/12/23 04:18:12;;;;;;;17.00;10.90;;;;;;;-2.64;94.18;101177.38;2089053;28;20021;-69
2021/12/23 04:19:12;;;;;;;17.48;12.52;;;;;;;-2.62;94.69;101169.75;2098372;28;20032;-69
2021/12/23 04:20:21;;;;;;;18.87;13.50;;;;;;;-2.64;94.28;101162.06;2107927;28;20088;-69
2021/12/23 04:21:21;;;;;;;17.75;12.70;;;;;;;-2.64;94.25;101156.94;2107861;28;20032;-68
2021/12/23 04:22:21;;;;;;;16.75;11.35;;;;;;;-2.64;94.54;101156.94;2107884;28;20031;-68
2021/12/23 04:23:23;;;;;;;16.70;10.37;;;;;;;-2.64;94.41;101143.31;2107839;28;20031;-68
2021/12/23 04:24:24;;;;;;;18.23;12.13;;;;;;;-2.64;94.40;101154.38;2098738;28;20115;-68
2021/12/23 04:25:27;;;;;;;15.65;10.88;;;;;;;-2.64;94.99;101154.38;2098955;28;20051;-68
2021/12/23 04:26:27;;;;;;;17.52;11.40;;;;;;;-2.66;94.52;101161.19;2107824;28;20073;-68
2021/12/23 04:27:27;;;;;;;21.73;15.03;;;;;;;-2.66;95.00;101150.97;2107754;28;20056;-68
2021/12/23 04:28:28;;;;;;;19.77;12.93;;;;;;;-2.67;94.69;101154.31;2107868;28;20149;-69
2021/12/23 04:29:28;;;;;;;19.00;12.15;;;;;;;-2.65;94.71;101159.47;2107808;28;20048;-69
2021/12/23 04:30:29;;;;;;;17.77;12.27;;;;;;;-2.65;95.11;101164.56;2107820;28;20051;-69
2021/12/23 04:31:29;;;;;;;20.95;13.82;;;;;;;-2.65;94.90;101165.44;2107813;28;20122;-69
2021/12/23 04:32:29;;;;;;;18.00;13.07;;;;;;;-2.66;95.10;101166.28;2107800;28;20027;-70
2021/12/23 04:33:30;;;;;;;17.25;12.13;;;;;;;-2.66;95.10;101168.84;2107754;28;20107;-68
2021/12/23 04:34:30;;;;;;;19.90;12.37;;;;;;;-2.68;94.87;101190.94;2098609;28;20161;-68
2021/12/23 04:35:31;;;;;;;20.33;12.13;;;;;;;-2.70;95.25;101184.97;2098689;28;20039;-68
2021/12/23 04:36:31;;;;;;;16.75;12.25;;;;;;;-2.71;95.46;101175.53;2107686;28;20060;-68
2021/12/23 04:37:31;;;;;;;19.50;11.87;;;;;;;-2.73;95.45;101167.00;2107830;28;20024;-68
2021/12/23 04:38:32;;;;;;;18.97;12.47;;;;;;;-2.74;95.03;101165.28;2107765;28;20285;-68
2021/12/23 04:39:32;;;;;;;15.50;11.17;;;;;;;-2.74;95.01;101160.19;2107751;28;20024;-69
2021/12/23 04:40:34;;;;;;;18.50;11.83;;;;;;;-2.74;95.36;101161.03;2107706;28;20495;-69
2021/12/23 04:41:35;;;;;;;19.38;12.18;;;;;;;-2.75;95.77;101154.19;2107795;28;20016;-69
2021/12/23 04:42:35;;;;;;;20.97;12.77;;;;;;;-2.76;95.50;101146.50;2107728;28;20048;-69
2021/12/23 04:43:36;;;;;;;17.63;12.98;;;;;;;-2.74;95.50;101132.06;2107671;28;20032;-69
2021/12/23 04:44:37;;;;;;;21.40;14.20;;;;;;;-2.70;95.11;101141.53;2107768;28;20390;-70
2021/12/23 04:45:37;;;;;;;24.17;14.17;;;;;;;-2.69;95.00;101152.56;2098623;28;20038;-69